createdAt,value
2023-03-26T00:01:13.917Z,98.46
2023-03-26T00:03:41.016Z,98.65
2023-03-26T00:06:10.546Z,97.88
2023-03-26T00:08:38.538Z,98.62
2023-03-26T00:11:06.588Z,98.47
2023-03-26T00:13:33.197Z,98.35
2023-03-26T00:16:01.208Z,97.75
2023-03-26T00:18:31.527Z,97.62
2023-03-26T00:20:59.338Z,97.67
2023-03-26T00:23:28.221Z,98.33
2023-03-26T00:25:56.118Z,97.79
2023-03-26T00:28:23.644Z,97.93
2023-03-26T00:30:56.744Z,98.36
2023-03-26T00:33:23.463Z,97.88
2023-03-26T00:35:54.404Z,97.72
2023-03-26T00:38:24.836Z,97.75
2023-03-26T00:40:52.298Z,97.77
2023-03-26T00:43:20.435Z,97.49
2023-03-26T00:45:51.502Z,97.44
2023-03-26T00:48:18.584Z,97.41
2023-03-26T00:50:46.725Z,97.84
2023-03-26T00:53:14.826Z,97.89
2023-03-26T00:55:42.308Z,97.93
2023-03-26T00:58:12.193Z,98.45
2023-03-26T01:00:46.369Z,98.40
2023-03-26T01:03:26.953Z,97.75
2023-03-26T01:06:02.605Z,98.29
2023-03-26T01:08:33.262Z,98.42
2023-03-26T01:11:07.415Z,98.13
2023-03-26T01:13:39.838Z,98.45
2023-03-26T01:16:20.106Z,98.66
2023-03-26T01:18:48.617Z,98.46
2023-03-26T01:21:22.564Z,97.96
2023-03-26T01:23:57.290Z,98.26
2023-03-26T01:26:41.089Z,98.20
2023-03-26T01:29:19.432Z,98.97
2023-03-26T01:32:00.890Z,98.38
2023-03-26T01:34:49.658Z,98.37
2023-03-26T01:37:32.568Z,98.58
2023-03-26T01:40:06.961Z,98.89
2023-03-26T01:42:43.569Z,98.96
2023-03-26T01:45:15.624Z,99.02
2023-03-26T01:47:43.931Z,99.16
2023-03-26T01:50:10.465Z,99.11
2023-03-26T01:52:37.393Z,98.67
2023-03-26T01:55:04.663Z,99.25
2023-03-26T01:58:13.393Z,98.99
2023-03-26T02:00:55.073Z,98.75
2023-03-26T02:03:30.266Z,98.88
2023-03-26T02:05:57.813Z,99.10
2023-03-26T02:08:35.273Z,99.66
2023-03-26T02:11:11.746Z,99.51
2023-03-26T02:13:44.970Z,99.04
2023-03-26T02:16:14.353Z,99.15
2023-03-26T02:18:41.863Z,99.28
2023-03-26T02:21:19.969Z,99.33
2023-03-26T02:23:57.715Z,99.24
2023-03-26T02:26:25.182Z,98.88
2023-03-26T02:28:51.656Z,99.62
2023-03-26T02:31:19.385Z,99.43
2023-03-26T02:33:47.525Z,100.00
2023-03-26T02:36:14.304Z,99.87
2023-03-26T02:38:41.642Z,100.00
2023-03-26T02:41:08.131Z,99.59
2023-03-26T02:43:34.526Z,99.77
2023-03-26T02:46:01.192Z,99.96
2023-03-26T02:48:27.650Z,99.50
2023-03-26T02:50:56.936Z,100.00
2023-03-26T02:53:29.567Z,100.00
2023-03-26T02:55:57.679Z,100.00
2023-03-26T02:58:26.383Z,100.00
2023-03-26T03:00:56.909Z,100.00
2023-03-26T03:03:27.983Z,100.00
2023-03-26T03:05:55.173Z,100.00
2023-03-26T03:08:23.913Z,100.00
2023-03-26T03:11:23.515Z,100.00
2023-03-26T03:13:50.656Z,100.00
2023-03-26T03:16:17.391Z,100.00
2023-03-26T03:18:44.299Z,100.00
2023-03-26T03:21:10.902Z,100.00
2023-03-26T03:23:37.374Z,100.00
2023-03-26T03:26:04.062Z,100.00
2023-03-26T03:28:30.559Z,100.00
2023-03-26T03:30:57.614Z,100.00
2023-03-26T03:33:24.114Z,100.00
2023-03-26T03:35:51.060Z,100.00
2023-03-26T03:38:18.002Z,100.00
2023-03-26T03:40:45.098Z,100.00
2023-03-26T03:43:11.552Z,100.00
2023-03-26T03:45:37.970Z,100.00
2023-03-26T03:48:04.713Z,100.00
2023-03-26T03:50:33.106Z,100.00
2023-03-26T03:53:01.560Z,100.00
2023-03-26T03:55:28.046Z,100.00
2023-03-26T03:57:54.733Z,100.00
2023-03-26T04:00:22.621Z,100.00
2023-03-26T04:02:49.162Z,100.00
2023-03-26T04:05:15.642Z,100.00
2023-03-26T04:07:42.154Z,100.00
2023-03-26T04:10:09.803Z,100.00
2023-03-26T04:12:36.261Z,100.00
2023-03-26T04:15:03.586Z,100.00
2023-03-26T04:17:30.583Z,100.00
2023-03-26T04:19:57.364Z,100.00
2023-03-26T04:22:26.119Z,100.00
2023-03-26T04:24:54.347Z,100.00
2023-03-26T04:27:28.213Z,100.00
2023-03-26T04:29:54.983Z,100.00
2023-03-26T04:32:29.634Z,100.00
2023-03-26T04:35:00.266Z,100.00
2023-03-26T04:37:34.479Z,100.00
2023-03-26T04:40:06.302Z,100.00
2023-03-26T04:42:33.345Z,100.00
2023-03-26T04:44:59.838Z,100.00
2023-03-26T04:47:26.230Z,100.00
2023-03-26T04:49:52.692Z,100.00
2023-03-26T04:52:19.199Z,100.00
2023-03-26T04:54:46.047Z,100.00
2023-03-26T04:57:29.513Z,100.00
2023-03-26T04:59:56.289Z,100.00
2023-03-26T05:02:22.993Z,100.00
2023-03-26T05:04:50.013Z,100.00
2023-03-26T05:07:25.070Z,100.00
2023-03-26T05:09:51.443Z,100.00
2023-03-26T05:12:17.910Z,100.00
2023-03-26T05:14:44.378Z,100.00
2023-03-26T05:17:14.898Z,100.00
2023-03-26T05:19:41.705Z,100.00
2023-03-26T05:22:08.193Z,100.00
2023-03-26T05:24:34.616Z,100.00
2023-03-26T05:27:01.229Z,100.00
2023-03-26T05:29:27.834Z,100.00
2023-03-26T05:31:54.293Z,100.00
2023-03-26T05:34:24.030Z,100.00
2023-03-26T05:36:50.596Z,100.00
2023-03-26T05:39:17.088Z,100.00
2023-03-26T05:41:44.079Z,100.00
2023-03-26T05:44:10.723Z,100.00
2023-03-26T05:46:37.309Z,100.00
2023-03-26T05:49:03.728Z,100.00
2023-03-26T05:51:30.279Z,100.00
2023-03-26T05:53:56.774Z,100.00
2023-03-26T05:56:23.223Z,100.00
2023-03-26T05:58:51.488Z,100.00
2023-03-26T06:01:19.531Z,100.00
2023-03-26T06:03:47.028Z,100.00
2023-03-26T06:06:17.435Z,100.00
2023-03-26T06:09:01.395Z,100.00
2023-03-26T06:11:29.305Z,100.00
2023-03-26T06:13:55.784Z,100.00
2023-03-26T06:16:26.330Z,100.00
2023-03-26T06:18:56.685Z,100.00
2023-03-26T06:21:28.106Z,100.00
2023-03-26T06:23:55.288Z,100.00
2023-03-26T06:26:22.267Z,100.00
2023-03-26T06:28:48.844Z,100.00
2023-03-26T06:31:17.200Z,100.00
2023-03-26T06:33:43.695Z,100.00
2023-03-26T06:36:10.529Z,100.00
2023-03-26T06:38:37.012Z,100.00
2023-03-26T06:41:04.809Z,100.00
2023-03-26T06:43:33.617Z,100.00
2023-03-26T06:46:01.413Z,100.00
2023-03-26T06:48:27.934Z,100.00
2023-03-26T06:50:55.267Z,100.00
2023-03-26T06:53:21.829Z,100.00
2023-03-26T06:55:48.293Z,100.00
2023-03-26T06:58:14.714Z,100.00
2023-03-26T07:00:42.319Z,100.00
2023-03-26T07:03:09.846Z,100.00
2023-03-26T07:05:36.213Z,99.94
2023-03-26T07:08:03.110Z,100.00
2023-03-26T07:10:29.695Z,100.00
2023-03-26T07:12:56.092Z,100.00
2023-03-26T07:15:22.608Z,100.00
2023-03-26T07:17:49.091Z,100.00
2023-03-26T07:20:15.827Z,100.00
2023-03-26T07:22:42.747Z,100.00
2023-03-26T07:25:10.129Z,100.00
2023-03-26T07:28:00.678Z,100.00
2023-03-26T07:30:31.757Z,100.00
2023-03-26T07:33:09.142Z,100.00
2023-03-26T07:35:56.047Z,100.00
2023-03-26T07:38:22.349Z,100.00
2023-03-26T07:41:07.305Z,100.00
2023-03-26T07:43:51.021Z,100.00
2023-03-26T07:46:20.586Z,100.00
2023-03-26T07:48:51.821Z,100.00
2023-03-26T07:51:18.743Z,99.97
2023-03-26T07:53:45.718Z,100.00
2023-03-26T07:56:31.034Z,99.93
2023-03-26T07:59:14.045Z,99.29
2023-03-26T08:02:11.659Z,99.32
2023-03-26T08:05:19.608Z,99.79
2023-03-26T08:07:50.733Z,99.18
2023-03-26T08:10:26.075Z,99.08
2023-03-26T08:13:00.032Z,99.63
2023-03-26T08:15:40.778Z,99.15
2023-03-26T08:18:27.316Z,98.58
2023-03-26T08:21:00.795Z,98.69
2023-03-26T08:24:18.468Z,98.45
2023-03-26T08:26:45.375Z,99.06
2023-03-26T08:29:26.593Z,98.78
2023-03-26T08:31:54.821Z,98.33
2023-03-26T08:34:21.225Z,99.09
2023-03-26T08:36:47.703Z,99.02
2023-03-26T08:39:14.206Z,99.14
2023-03-26T08:42:12.932Z,98.68
2023-03-26T08:45:06.548Z,98.08
2023-03-26T08:48:10.507Z,97.90
2023-03-26T08:50:47.077Z,98.23
2023-03-26T08:53:35.590Z,98.84
2023-03-26T08:56:26.507Z,99.05
2023-03-26T08:59:12.941Z,99.00
2023-03-26T09:02:22.782Z,98.54
2023-03-26T09:04:57.586Z,98.35
2023-03-26T09:07:47.147Z,98.83
2023-03-26T09:10:33.152Z,98.74
2023-03-26T09:13:36.924Z,98.85
2023-03-26T09:16:26.343Z,99.37
2023-03-26T09:18:53.565Z,99.31
2023-03-26T09:21:37.897Z,99.23
2023-03-26T09:24:38.503Z,99.06
2023-03-26T09:27:20.839Z,99.77
2023-03-26T09:30:12.154Z,100.00
2023-03-26T09:33:11.545Z,99.70
2023-03-26T09:35:46.797Z,99.67
2023-03-26T09:38:44.815Z,99.29
2023-03-26T09:41:22.685Z,98.85
2023-03-26T09:44:14.063Z,99.21
2023-03-26T09:47:04.534Z,99.55
2023-03-26T09:49:54.372Z,99.38
2023-03-26T09:52:45.927Z,99.20
2023-03-26T09:55:43.639Z,99.37
2023-03-26T09:58:32.060Z,99.30
2023-03-26T10:01:22.201Z,98.66
2023-03-26T10:04:01.798Z,98.70
2023-03-26T10:06:31.276Z,98.94
2023-03-26T10:09:19.512Z,98.78
2023-03-26T10:12:07.725Z,98.74
2023-03-26T10:14:47.598Z,98.20
2023-03-26T10:17:25.506Z,98.87
2023-03-26T10:19:58.955Z,98.54
2023-03-26T10:23:12.989Z,98.34
2023-03-26T10:26:04.331Z,98.11
2023-03-26T10:29:04.848Z,98.47
2023-03-26T10:31:51.559Z,98.37
2023-03-26T10:34:54.545Z,97.89
2023-03-26T10:37:39.975Z,98.72
2023-03-26T10:40:19.183Z,98.67
2023-03-26T10:43:22.966Z,98.28
2023-03-26T10:46:02.596Z,98.49
2023-03-26T10:49:04.259Z,98.76
2023-03-26T10:51:30.681Z,98.56
2023-03-26T10:54:10.960Z,98.39
2023-03-26T10:56:45.777Z,99.11
2023-03-26T10:59:14.408Z,98.97
2023-03-26T11:01:53.016Z,98.80
2023-03-26T11:04:47.338Z,98.78
2023-03-26T11:07:35.774Z,98.12
2023-03-26T11:10:23.983Z,98.25
2023-03-26T11:13:38.853Z,97.79
2023-03-26T11:16:09.620Z,98.14
2023-03-26T11:19:15.863Z,97.43
2023-03-26T11:21:45.348Z,96.43
2023-03-26T11:24:41.382Z,96.78
2023-03-26T11:27:23.738Z,96.21
2023-03-26T11:30:14.094Z,96.20
2023-03-26T11:32:51.837Z,96.14
2023-03-26T11:35:39.538Z,95.50
2023-03-26T11:38:19.857Z,95.78
2023-03-26T11:40:50.940Z,94.80
2023-03-26T11:43:24.234Z,94.05
2023-03-26T11:45:51.774Z,94.57
2023-03-26T11:48:31.874Z,94.12
2023-03-26T11:51:10.729Z,94.18
2023-03-26T11:53:46.499Z,94.00
2023-03-26T11:56:26.969Z,94.36
2023-03-26T11:59:09.957Z,94.72
2023-03-26T12:02:14.818Z,94.58
2023-03-26T12:04:43.903Z,93.91
2023-03-26T12:07:17.417Z,93.76
2023-03-26T12:09:57.453Z,95.53
2023-03-26T12:12:46.977Z,94.24
2023-03-26T12:15:19.758Z,95.02
2023-03-26T12:17:48.071Z,94.61
2023-03-26T12:20:26.821Z,94.35
2023-03-26T12:22:59.138Z,94.24
2023-03-26T12:25:30.824Z,93.81
2023-03-26T12:28:04.892Z,92.52
2023-03-26T12:30:35.488Z,91.33
2023-03-26T12:33:05.414Z,90.25
2023-03-26T12:35:34.734Z,89.83
2023-03-26T12:38:24.753Z,89.51
2023-03-26T12:42:52.656Z,88.41
2023-03-26T12:44:55.536Z,86.29
2023-03-26T12:47:57.876Z,87.00
2023-03-26T12:49:33.681Z,86.06
2023-03-26T12:52:18.753Z,86.86
2023-03-26T12:55:03.142Z,85.66
2023-03-26T12:57:52.485Z,85.34
2023-03-26T13:00:40.864Z,85.41
2023-03-26T13:03:37.806Z,84.56
2023-03-26T13:06:30.888Z,83.46
2023-03-26T13:09:19.552Z,84.13
2023-03-26T13:12:01.475Z,83.72
2023-03-26T13:14:56.307Z,83.16
2023-03-26T13:17:39.951Z,82.40
2023-03-26T13:20:33.007Z,80.80
2023-03-26T13:23:20.690Z,80.13
2023-03-26T13:26:23.425Z,79.25
2023-03-26T13:29:25.845Z,79.90
2023-03-26T13:32:22.602Z,78.53
2023-03-26T13:34:58.234Z,77.48
2023-03-26T13:37:36.825Z,78.23
2023-03-26T13:40:22.250Z,78.56
2023-03-26T13:43:10.324Z,77.66
2023-03-26T13:45:47.410Z,77.24
2023-03-26T13:48:19.149Z,77.45
2023-03-26T13:50:57.112Z,77.41
2023-03-26T13:53:41.871Z,77.24
2023-03-26T13:56:12.635Z,75.78
2023-03-26T13:58:47.418Z,74.68
2023-03-26T14:01:18.814Z,74.43
2023-03-26T14:04:00.336Z,75.96
2023-03-26T14:07:00.205Z,75.41
2023-03-26T14:09:31.948Z,75.67
2023-03-26T14:12:21.155Z,74.46
2023-03-26T14:14:57.852Z,74.87
2023-03-26T14:17:30.917Z,74.44
2023-03-26T14:20:09.446Z,74.49
2023-03-26T14:22:42.221Z,75.14
2023-03-26T14:25:46.983Z,74.94
2023-03-26T14:28:29.559Z,74.48
2023-03-26T14:31:11.237Z,74.44
2023-03-26T14:33:49.902Z,73.41
2023-03-26T14:36:29.467Z,73.27
2023-03-26T14:39:31.850Z,73.55
2023-03-26T14:42:11.985Z,73.04
2023-03-26T14:44:57.012Z,73.66
2023-03-26T14:47:27.008Z,72.89
2023-03-26T14:50:21.461Z,73.26
2023-03-26T14:53:01.448Z,73.92
2023-03-26T14:55:49.578Z,73.52
2023-03-26T14:58:37.601Z,72.99
2023-03-26T15:01:26.826Z,73.00
2023-03-26T15:04:38.370Z,73.36
2023-03-26T15:07:38.484Z,72.82
2023-03-26T15:10:42.456Z,72.19
2023-03-26T15:13:44.581Z,72.61
2023-03-26T15:16:28.020Z,71.88
2023-03-26T15:19:13.557Z,72.36
2023-03-26T15:22:10.051Z,72.02
2023-03-26T15:25:01.294Z,73.00
2023-03-26T15:28:08.155Z,71.70
2023-03-26T15:30:53.465Z,71.59
2023-03-26T15:33:44.955Z,72.22
2023-03-26T15:36:34.417Z,70.43
2023-03-26T15:39:23.347Z,71.57
2023-03-26T15:42:22.115Z,70.64
2023-03-26T15:45:24.458Z,69.89
2023-03-26T15:48:12.635Z,70.57
2023-03-26T15:50:45.566Z,69.95
2023-03-26T15:53:39.363Z,69.83
2023-03-26T15:56:34.237Z,70.22
2023-03-26T15:59:39.961Z,70.22
2023-03-26T16:02:07.422Z,68.29
2023-03-26T16:04:51.500Z,69.36
2023-03-26T16:07:47.226Z,69.34
2023-03-26T16:10:35.707Z,69.40
2023-03-26T16:13:17.418Z,68.12
2023-03-26T16:15:55.857Z,68.26
2023-03-26T16:18:27.783Z,68.05
2023-03-26T16:21:04.318Z,67.44
2023-03-26T16:23:47.582Z,68.51
2023-03-26T16:26:51.662Z,68.02
2023-03-26T16:29:19.470Z,69.01
2023-03-26T16:32:07.291Z,68.41
2023-03-26T16:34:57.308Z,67.65
2023-03-26T16:37:36.173Z,69.04
2023-03-26T16:40:18.463Z,68.75
2023-03-26T16:43:22.063Z,69.21
2023-03-26T16:46:03.744Z,68.68
2023-03-26T16:48:50.418Z,67.73
2023-03-26T16:51:33.070Z,67.85
2023-03-26T16:54:04.226Z,65.98
2023-03-26T16:56:42.124Z,65.56
2023-03-26T16:59:38.863Z,66.36
2023-03-26T17:02:31.197Z,66.65
2023-03-26T17:05:25.824Z,65.98
2023-03-26T17:07:58.005Z,66.13
2023-03-26T17:10:33.407Z,65.43
2023-03-26T17:13:16.720Z,65.71
2023-03-26T17:16:14.789Z,65.71
2023-03-26T17:19:03.721Z,64.42
2023-03-26T17:21:49.859Z,64.64
2023-03-26T17:24:29.405Z,63.53
2023-03-26T17:27:18.020Z,64.06
2023-03-26T17:29:59.552Z,64.32
2023-03-26T17:32:54.350Z,63.79
2023-03-26T17:35:41.082Z,64.92
2023-03-26T17:38:16.563Z,63.99
2023-03-26T17:40:48.968Z,65.43
2023-03-26T17:43:51.189Z,65.60
2023-03-26T17:46:26.856Z,66.21
2023-03-26T17:49:11.328Z,67.22
2023-03-26T17:51:50.302Z,65.76
2023-03-26T17:54:30.535Z,64.98
2023-03-26T17:57:03.065Z,62.56
2023-03-26T17:59:31.851Z,62.92
2023-03-26T18:02:05.391Z,63.41
2023-03-26T18:04:34.889Z,63.35
2023-03-26T18:07:49.449Z,64.46
2023-03-26T18:10:48.163Z,64.26
2023-03-26T18:13:38.990Z,64.62
2023-03-26T18:16:14.468Z,64.27
2023-03-26T18:18:53.364Z,63.68
2023-03-26T18:21:43.922Z,64.25
2023-03-26T18:24:17.357Z,64.22
2023-03-26T18:26:46.809Z,63.12
2023-03-26T18:29:22.332Z,62.96
2023-03-26T18:31:54.862Z,64.26
2023-03-26T18:34:21.868Z,63.87
2023-03-26T18:37:15.273Z,64.21
2023-03-26T18:39:57.202Z,64.77
2023-03-26T18:42:24.976Z,65.01
2023-03-26T18:44:52.848Z,65.06
2023-03-26T18:47:20.445Z,65.34
2023-03-26T18:49:49.821Z,65.25
2023-03-26T18:52:19.087Z,66.65
2023-03-26T18:54:52.426Z,66.10
2023-03-26T18:57:25.786Z,66.61
2023-03-26T18:59:54.648Z,66.22
2023-03-26T19:02:22.077Z,66.43
2023-03-26T19:04:50.866Z,66.24
2023-03-26T19:07:25.081Z,67.61
2023-03-26T19:09:56.109Z,66.54
2023-03-26T19:12:27.809Z,67.15
2023-03-26T19:15:13.965Z,67.76
2023-03-26T19:17:45.072Z,68.23
2023-03-26T19:20:19.418Z,67.84
2023-03-26T19:22:47.579Z,68.10
2023-03-26T19:25:22.521Z,68.99
2023-03-26T19:27:50.694Z,69.47
2023-03-26T19:30:29.769Z,69.66
2023-03-26T19:33:13.544Z,68.93
2023-03-26T19:35:42.108Z,70.69
2023-03-26T19:38:24.752Z,69.84
2023-03-26T19:40:54.834Z,69.65
2023-03-26T19:43:22.406Z,69.65
2023-03-26T19:46:00.266Z,69.88
2023-03-26T19:48:46.175Z,69.23
2023-03-26T19:51:20.253Z,70.14
2023-03-26T19:53:53.088Z,68.12
2023-03-26T19:56:20.754Z,67.00
2023-03-26T19:58:48.560Z,67.10
2023-03-26T20:01:27.173Z,68.63
2023-03-26T20:04:00.971Z,68.64
2023-03-26T20:06:42.452Z,68.09
2023-03-26T20:09:11.300Z,67.86
2023-03-26T20:11:39.679Z,68.32
2023-03-26T20:14:19.811Z,68.56
2023-03-26T20:16:46.502Z,67.90
2023-03-26T20:19:14.510Z,68.21
2023-03-26T20:21:41.808Z,69.06
2023-03-26T20:24:17.033Z,68.79
2023-03-26T20:26:44.535Z,67.71
2023-03-26T20:29:11.687Z,67.91
2023-03-26T20:31:39.691Z,69.57
2023-03-26T20:34:19.703Z,68.60
2023-03-26T20:36:47.008Z,68.55
2023-03-26T20:39:14.176Z,68.97
2023-03-26T20:41:45.407Z,68.66
2023-03-26T20:44:15.432Z,68.81
2023-03-26T20:46:43.148Z,67.96
2023-03-26T20:49:10.784Z,69.03
2023-03-26T20:51:41.949Z,68.89
2023-03-26T20:54:21.425Z,68.61
2023-03-26T20:56:48.859Z,68.54
2023-03-26T20:59:21.958Z,68.81
2023-03-26T21:01:50.063Z,68.94
2023-03-26T21:04:17.127Z,68.26
2023-03-26T21:06:43.929Z,69.34
2023-03-26T21:09:17.505Z,69.78
2023-03-26T21:12:01.447Z,69.83
2023-03-26T21:14:32.831Z,69.45
2023-03-26T21:17:00.315Z,70.09
2023-03-26T21:19:27.261Z,69.67
2023-03-26T21:22:25.713Z,70.44
2023-03-26T21:25:11.686Z,70.33
2023-03-26T21:27:44.152Z,70.09
2023-03-26T21:30:16.742Z,70.51
2023-03-26T21:32:45.288Z,70.58
2023-03-26T21:35:13.497Z,70.63
2023-03-26T21:37:42.983Z,71.97
2023-03-26T21:40:14.835Z,71.36
2023-03-26T21:42:51.800Z,71.81
2023-03-26T21:45:19.380Z,71.17
2023-03-26T21:47:46.524Z,72.27
2023-03-26T21:50:16.402Z,73.38
2023-03-26T21:52:49.413Z,73.26
2023-03-26T21:55:17.802Z,72.56
2023-03-26T21:58:00.694Z,73.47
2023-03-26T22:00:43.302Z,72.76
2023-03-26T22:03:34.940Z,73.07
2023-03-26T22:06:13.594Z,72.93
2023-03-26T22:08:41.446Z,73.99
2023-03-26T22:11:10.132Z,73.63
2023-03-26T22:13:38.580Z,74.48
2023-03-26T22:16:07.131Z,74.26
2023-03-26T22:18:34.367Z,73.43
2023-03-26T22:21:00.977Z,74.09
2023-03-26T22:23:34.052Z,73.44
2023-03-26T22:26:00.567Z,74.26
2023-03-26T22:28:27.134Z,74.84
2023-03-26T22:30:53.682Z,74.21
2023-03-26T22:33:20.291Z,74.23
2023-03-26T22:35:47.401Z,75.07
2023-03-26T22:38:13.899Z,75.11
2023-03-26T22:40:40.345Z,75.15
2023-03-26T22:43:07.258Z,75.21
2023-03-26T22:45:33.624Z,76.37
2023-03-26T22:48:04.055Z,76.31
2023-03-26T22:50:31.048Z,76.88
2023-03-26T22:52:57.503Z,76.76
2023-03-26T22:55:27.957Z,77.49
2023-03-26T22:57:55.717Z,76.68
2023-03-26T23:00:22.248Z,77.50
2023-03-26T23:02:48.694Z,77.21
2023-03-26T23:05:18.599Z,77.04
2023-03-26T23:07:46.033Z,76.99
2023-03-26T23:10:13.321Z,77.02
2023-03-26T23:12:40.026Z,77.63
2023-03-26T23:15:07.194Z,77.74
2023-03-26T23:17:38.199Z,78.16
2023-03-26T23:20:14.869Z,77.83
2023-03-26T23:22:42.652Z,77.56
2023-03-26T23:25:10.176Z,76.35
2023-03-26T23:27:37.211Z,76.57
2023-03-26T23:30:04.795Z,77.38
2023-03-26T23:32:31.367Z,76.65
2023-03-26T23:34:57.927Z,76.97
2023-03-26T23:37:24.386Z,77.22
2023-03-26T23:39:51.421Z,77.41
2023-03-26T23:42:28.892Z,77.27
2023-03-26T23:44:56.632Z,78.26
2023-03-26T23:47:23.137Z,78.75
2023-03-26T23:49:49.784Z,77.76
2023-03-26T23:52:16.182Z,78.47
2023-03-26T23:54:42.595Z,78.82
2023-03-26T23:57:09.200Z,78.57
2023-03-26T23:59:35.974Z,78.17
